Latest Coastal Weather Observations for Neptune Island

IDS60701

Issued at 1:45 am CDT Thursday 27 November 2014 (issued every 10 minutes, with the page automatically refreshed every 10 minutes)

About coastal observations | Map of coastal stations | Coastal observations for SA | Marine services | Other Formats
Station Details ID: 018115 Name: NEPTUNE ISLAND Lat: -35.34 Lon: 136.12 Height: 32.0 m
Data from the previous 72 hours. | See also: Recent months at Neptune Island
Date/Time
CDT
Temp

°C
Wind Pressure Rain
since 9am
mm
Weather Cloud Vis
km
Sea
Height
m
Swell
Dir
 
Speed
knots
Gust
knots
hPa Trend Height
m
Period
s
Dir
27/01:30am 15.3 SE 14 16 1023.4 - 0.0 - - - - - - -
27/01:00am 15.3 SE 13 17 1023.9 - 0.0 - - - - - - -
27/12:30am 15.8 SE 13 15 1024.2 - 0.0 - - - - - - -
27/12:00am 16.1 ESE 12 14 1024.4 - 0.0 - - - - - - -
 
Date/Time
CDT
Temp

°C
Wind Pressure Rain
since 9am
mm
Weather Cloud Vis
km
Sea
Height
m
Swell
Dir
 
Speed
knots
Gust
knots
hPa Trend Height
m
Period
s
Dir
26/11:30pm 15.9 ESE 11 15 1024.4 - 0.0 - - - - - - -
26/11:00pm 16.1 ESE 15 19 1024.2 - 0.0 - - - - - - -
26/10:30pm 16.0 ESE 17 22 1024.0 - 0.0 - - - - - - -
26/10:00pm 16.2 SE 17 22 1023.8 - 0.0 - - - - - - -
26/09:30pm 15.9 SE 17 21 1023.6 - 0.0 - - - - - - -
26/09:00pm 16.1 SSE 19 23 1023.3 - 0.0 - - - - - - -
26/08:30pm 16.1 SSE 20 24 1023.2 - 0.0 - - - - - - -
26/08:00pm 16.3 SSE 19 23 1023.2 - 0.0 - - - - - - -
26/07:30pm 16.4 SSE 20 24 1022.9 - 0.0 - - - - - - -
26/07:00pm 16.6 SSE 21 24 1022.8 - 0.0 - - - - - - -
26/06:30pm 16.9 S 21 24 1022.6 - 0.0 - - - - - - -
26/06:00pm 17.1 S 18 21 1022.7 - 0.0 - - - - - - -
26/05:30pm 16.8 S 16 19 1022.8 - 0.0 - - - - - - -
26/05:00pm 17.3 S 17 21 1022.6 - 0.0 - - - - - - -
26/04:30pm 17.8 S 15 19 1023.0 - 0.0 - - - - - - -
26/04:00pm 17.9 S 13 16 1023.2 - 0.0 - - - - - - -
26/03:30pm 17.7 S 12 14 1023.4 - 0.0 - - - - - - -
26/03:00pm 17.5 S 12 14 1023.6 - 0.0 - - - - - - -
26/02:30pm 17.7 S 12 15 1023.6 - 0.0 - - - - - - -
26/02:00pm 17.7 SSE 10 14 1023.9 - 0.0 - - - - - - -
26/01:30pm 17.2 SSE 14 17 1024.2 - 0.0 - - - - - - -
26/01:00pm 16.3 SSE 12 15 1024.2 - 0.0 - - - - - - -
26/12:30pm 17.1 SSE 11 13 1024.4 - 0.0 - - - - - - -
26/12:00pm 17.0 SSE 10 12 1024.6 - 0.0 - - - - - - -
26/11:30am 17.2 SSE 8 10 1024.8 - 0.0 - - - - - - -
26/11:00am 16.8 SSE 9 11 1024.7 - 0.0 - - - - - - -
26/10:30am 16.2 S 8 10 1024.9 - 0.0 - - - - - - -
26/10:00am 15.9 SSE 7 9 1024.9 - 0.0 - - - - - - -
26/09:30am 16.0 SSE 8 11 1024.7 - 0.0 - - - - - - -
26/09:00am 15.6 SSE 9 11 1024.7 - 0.0 - - - - - - -
26/08:30am 15.5 SSE 7 9 1024.2 - 0.0 - - - - - - -
26/08:00am 14.9 S 11 13 1023.8 - 0.0 - - - - - - -
26/07:30am 14.8 SSE 12 14 1023.4 - 0.0 - - - - - - -
26/07:00am 14.7 SE 9 12 1023.0 - 0.0 - - - - - - -
26/06:30am 14.4 SSE 11 15 1022.6 - 0.0 - - - - - - -
26/06:00am 13.9 SE 9 12 1022.2 - 0.0 - - - - - - -
26/05:30am 13.9 SSE 10 14 1021.9 - 0.0 - - - - - - -
26/05:00am 14.1 SSE 10 13 1021.8 - 0.0 - - - - - - -
26/04:30am 14.2 SSE 12 14 1021.6 - 0.0 - - - - - - -
26/04:00am 14.3 SSE 10 13 1021.7 - 0.0 - - - - - - -
26/03:30am 14.2 SSE 11 15 1021.9 - 0.0 - - - - - - -
26/03:00am 14.2 SSE 10 13 1021.8 - 0.0 - - - - - - -
26/02:30am 14.4 S 12 15 1022.2 - 0.0 - - - - - - -
26/02:00am 14.3 S 13 16 1022.5 - 0.0 - - - - - - -
26/01:30am 14.4 S 13 16 1022.7 - 0.0 - - - - - - -
26/01:00am 14.5 S 12 15 1022.9 - 0.0 - - - - - - -
26/12:30am 14.4 S 13 15 1023.2 - 0.0 - - - - - - -
26/12:00am 14.6 S 12 14 1023.3 - 0.0 - - - - - - -
 
Date/Time
CDT
Temp

°C
Wind Pressure Rain
since 9am
mm
Weather Cloud Vis
km
Sea
Height
m
Swell
Dir
 
Speed
knots
Gust
knots
hPa Trend Height
m
Period
s
Dir
25/11:30pm 14.7 SSE 12 15 1023.4 - 0.0 - - - - - - -
25/11:00pm 14.8 SSE 12 15 1023.6 - 0.0 - - - - - - -
25/10:30pm 14.6 S 13 16 1023.6 - 0.0 - - - - - - -
25/10:00pm 14.9 S 14 18 1023.5 - 0.0 - - - - - - -
25/09:30pm 15.0 S 13 16 1023.4 - 0.0 - - - - - - -
25/09:00pm 15.1 S 14 16 1023.3 - 0.0 - - - - - - -
25/08:30pm 15.1 S 13 16 1023.3 - 0.0 - - - - - - -
25/08:00pm 15.4 S 13 16 1023.3 - 0.0 - - - - - - -
25/07:30pm 15.6 S 12 15 1023.1 - 0.0 - - - - - - -
25/07:00pm 15.4 S 13 17 1022.7 - 0.0 - - - - - - -
25/06:30pm 16.5 S 13 16 1022.6 - 0.0 - - - - - - -
25/06:00pm 16.0 S 13 16 1022.2 - 0.0 - - - - - - -
25/05:30pm 16.1 S 13 15 1022.4 - 0.0 - - - - - - -
25/05:00pm 17.4 S 13 18 1022.3 - 0.0 - - - - - - -
25/04:30pm 17.5 SSW 12 14 1022.6 - 0.0 - - - - - - -
25/04:00pm 18.7 SSW 11 14 1022.8 - 0.0 - - - - - - -
25/03:30pm 19.0 SSW 11 14 1023.0 - 0.0 - - - - - - -
25/03:00pm 19.2 SSW 12 15 1023.1 - 0.0 - - - - - - -
25/02:30pm 18.7 SSW 11 14 1023.1 - 0.0 - - - - - - -
25/02:00pm 18.5 SSW 10 13 1023.2 - 0.0 - - - - - - -
25/01:30pm 17.7 SSW 10 13 1023.3 - 0.0 - - - - - - -
25/01:00pm 18.1 SW 9 11 1023.4 - 0.0 - - - - - - -
25/12:30pm 18.2 SW 8 11 1023.5 - 0.0 - - - - - - -
25/12:00pm 17.6 SW 10 11 1023.6 - 0.0 - - - - - - -
25/11:30am 17.1 SW 8 10 1023.7 - 0.0 - - - - - - -
25/11:00am 17.4 SW 8 12 1023.6 - 0.0 - - - - - - -
25/10:30am 15.8 WSW 8 10 1023.6 - 0.0 - - - - - - -
25/10:00am 16.3 WSW 7 9 1023.6 - 0.0 - - - - - - -
25/09:30am 16.7 SW 9 11 1023.5 - 0.0 - - - - - - -
25/09:00am 16.4 SW 9 11 1023.2 - 0.0 - - - - - - -
25/08:30am 15.5 SSW 7 9 1022.9 - 0.0 - - - - - - -
25/08:00am 15.0 SSW 9 11 1022.6 - 0.0 - - - - - - -
25/07:30am 14.9 SW 12 15 1022.1 - 0.0 - - - - - - -
25/07:00am 14.5 SW 14 18 1021.8 - 0.0 - - - - - - -
25/06:30am 14.6 SSW 9 11 1021.5 - 0.0 - - - - - - -
25/06:00am 14.6 SSW 10 13 1021.2 - 0.0 - - - - - - -
25/05:30am 14.5 SSW 11 14 1020.8 - 0.0 - - - - - - -
25/05:00am 14.5 SSW 11 14 1020.6 - 0.0 - - - - - - -
25/04:30am 14.4 SSW 13 17 1020.5 - 0.0 - - - - - - -
25/04:00am 14.4 SSW 13 16 1020.4 - 0.0 - - - - - - -
25/03:30am 14.4 SSW 15 18 1020.2 - 0.0 - - - - - - -
25/03:00am 14.5 SSW 16 19 1020.2 - 0.0 - - - - - - -
25/02:30am 14.7 SSW 17 21 1020.0 - 0.0 - - - - - - -
25/02:00am 14.8 SSW 16 20 1020.0 - 0.0 - - - - - - -
25/01:30am 14.9 SSW 18 21 1020.0 - 0.0 - - - - - - -
25/01:00am 15.1 SSW 18 23 1020.1 - 0.0 - - - - - - -
25/12:30am 14.8 SSW 17 19 1020.1 - 0.0 - - - - - - -
25/12:00am 15.0 SSW 18 23 1020.3 - 0.0 - - - - - - -
 
Date/Time
CDT
Temp

°C
Wind Pressure Rain
since 9am
mm
Weather Cloud Vis
km
Sea
Height
m
Swell
Dir
 
Speed
knots
Gust
knots
hPa Trend Height
m
Period
s
Dir
24/11:30pm 15.0 SSW 18 22 1020.2 - 0.0 - - - - - - -
24/11:00pm 15.1 SW 19 22 1020.0 - 0.0 - - - - - - -
24/10:30pm 15.3 SW 18 23 1020.2 - 0.0 - - - - - - -
24/10:00pm 15.4 SSW 19 22 1019.9 - 0.0 - - - - - - -
24/09:30pm 15.6 SW 17 20 1019.6 - 0.0 - - - - - - -
24/09:00pm 15.5 SW 19 23 1019.2 - 0.0 - - - - - - -
24/08:30pm 15.8 SW 20 25 1018.9 - 0.0 - - - - - - -
24/08:00pm 15.7 SW 19 22 1018.3 - 0.0 - - - - - - -
24/07:30pm 16.2 SW 20 25 1017.9 - 0.0 - - - - - - -
24/07:00pm 16.2 SW 20 25 1017.6 - 0.0 - - - - - - -
24/06:30pm 16.5 SW 22 26 1017.3 - 0.0 - - - - - - -
24/06:00pm 16.8 SW 22 26 1017.1 - 0.0 - - - - - - -
24/05:30pm 17.0 SW 21 25 1017.0 - 0.0 - - - - - - -
24/05:00pm 17.3 SW 22 26 1016.9 - 0.0 - - - - - - -
24/04:30pm 17.5 SW 24 28 1016.8 - 0.0 - - - - - - -
24/04:00pm 17.5 SW 22 27 1016.6 - 0.0 - - - - - - -
24/03:30pm 17.6 SW 24 27 1016.3 - 0.0 - - - - - - -
24/03:00pm 18.3 SW 22 26 1016.3 - 0.0 - - - - - - -
24/02:30pm 18.3 SW 21 26 1016.3 - 0.0 - - - - - - -
24/02:00pm 17.9 SW 22 26 1016.3 - 0.0 - - - - - - -
24/01:30pm 18.1 SW 22 26 1016.1 - 0.0 - - - - - - -
24/01:00pm 17.8 SW 23 27 1016.0 - 0.0 - - - - - - -
24/12:30pm 17.5 SW 22 25 1015.9 - 0.0 - - - - - - -
24/12:00pm 17.5 SW 21 25 1015.7 - 0.0 - - - - - - -
24/11:30am 17.6 SW 23 27 1015.3 - 0.0 - - - - - - -
24/11:00am 17.2 SW 24 28 1015.0 - 0.0 - - - - - - -
24/10:30am 17.1 SW 22 25 1014.7 - 0.0 - - - - - - -
24/10:00am 16.5 SW 21 26 1014.5 - 0.0 - - - - - - -
24/09:30am 16.9 SW 20 24 1014.4 - 0.0 - - - - - - -
24/09:00am 16.5 SW 21 25 1014.0 - 0.0 - - - - - - -
24/08:30am 16.6 SSW 21 27 1013.4 - 0.0 - - - - - - -
24/08:00am 16.4 SW 22 26 1013.0 - 0.0 - - - - - - -
24/07:30am 16.5 SW 20 24 1012.3 - 0.0 - - - - - - -
24/07:00am 16.4 SW 22 25 1011.8 - 0.0 - - - - - - -
24/06:30am 16.3 SSW 20 24 1011.5 - 0.0 - - - - - - -
24/06:00am 16.2 SSW 21 24 1011.0 - 0.0 - - - - - - -
24/05:30am 16.8 SW 19 23 1010.5 - 0.0 - - - - - - -
24/05:00am 16.7 SW 17 20 1010.2 - 0.0 - - - - - - -
24/04:30am 16.8 SSW 16 19 1009.9 - 0.0 - - - - - - -
24/04:00am 16.7 SSW 16 19 1009.9 - 0.0 - - - - - - -
24/03:30am 16.6 SSW 12 16 1009.9 - 0.0 - - - - - - -
24/03:00am 16.6 S 11 13 1009.6 - 0.0 - - - - - - -
24/02:30am 16.6 S 14 16 1009.6 - 0.0 - - - - - - -
24/02:00am 16.7 S 14 16 1009.7 - 0.0 - - - - - - -

Other Formats:

Comma delimited format used in spreadsheet applications
http://www.bom.gov.au/fwo/IDS60701/IDS60701.94804.axf

JavaScript Object Notation format (JSON) in row-major order
http://www.bom.gov.au/fwo/IDS60701/IDS60701.94804.json